Time;durP1;ratioP1;P1;durP2;ratioP2;P2;SDS_P1;SDS_P2;PMS_P1;PMS_P2;Temp;Humidity;BMP_temperature;BMP_pressure;BME280_temperature;BME280_humidity;BME280_pressure;Samples;Min_cycle;Max_cycle;Signal;HPM_P1;HPM_P2
2023/10/01 00:01:00;;;;;;;37.67;35.78;;;;;;;11.44;100.00;101272.59;5031056;28;20045;-73
2023/10/01 00:03:27;;;;;;;41.67;39.47;;;;;;;11.41;100.00;101267.69;5031146;28;20112;-73
2023/10/01 00:05:54;;;;;;;47.35;44.95;;;;;;;11.13;100.00;101269.56;5028237;28;20124;-73
2023/10/01 00:08:21;;;;;;;46.08;43.78;;;;;;;10.62;100.00;101267.19;5031233;28;20061;-73
2023/10/01 00:10:48;;;;;;;46.85;44.17;;;;;;;11.04;100.00;101265.44;5029745;28;20073;-73
2023/10/01 00:13:16;;;;;;;42.90;40.60;;;;;;;10.69;100.00;101270.72;5030067;28;20053;-72
2023/10/01 00:15:43;;;;;;;39.40;37.40;;;;;;;11.21;100.00;101267.56;5031286;28;20050;-73
2023/10/01 00:18:10;;;;;;;50.00;47.35;;;;;;;11.30;100.00;101260.25;5026274;28;20523;-73
2023/10/01 00:20:37;;;;;;;43.88;41.67;;;;;;;11.38;100.00;101260.09;5030395;28;20053;-73
2023/10/01 00:23:04;;;;;;;40.88;38.67;;;;;;;11.08;100.00;101254.22;5030599;28;20048;-72
2023/10/01 00:25:31;;;;;;;44.63;42.22;;;;;;;11.20;100.00;101257.16;5031030;28;20045;-73
2023/10/01 00:27:59;;;;;;;40.53;38.30;;;;;;;11.12;100.00;101254.66;5026811;28;20427;-73
2023/10/01 00:30:31;;;;;;;42.05;39.75;;;;;;;10.76;100.00;101258.31;5029242;28;20542;-73
2023/10/01 00:33:00;;;;;;;42.10;39.80;;;;;;;11.06;100.00;101258.91;5028026;28;20077;-73
2023/10/01 00:35:26;;;;;;;42.30;40.10;;;;;;;11.10;100.00;101243.38;5030146;28;20050;-73
2023/10/01 00:37:54;;;;;;;38.15;35.95;;;;;;;10.96;100.00;101253.13;5027740;28;20045;-72
2023/10/01 00:40:22;;;;;;;32.55;30.45;;;;;;;10.93;100.00;101248.22;5029862;28;20438;-73
2023/10/01 00:42:48;;;;;;;38.28;36.10;;;;;;;10.70;100.00;101249.25;5030446;28;20045;-73
2023/10/01 00:45:15;;;;;;;40.13;37.72;;;;;;;10.16;100.00;101251.66;5026065;28;20074;-72
2023/10/01 00:47:46;;;;;;;42.67;40.20;;;;;;;10.42;100.00;101248.44;5030224;28;20050;-73
2023/10/01 00:50:15;;;;;;;37.67;35.35;;;;;;;10.52;100.00;101252.41;5030163;28;20368;-73
2023/10/01 00:52:43;;;;;;;41.22;38.92;;;;;;;10.49;100.00;101247.47;5029697;28;20045;-74
2023/10/01 00:55:13;;;;;;;36.63;34.65;;;;;;;10.57;100.00;101248.38;5028384;28;20062;-73
2023/10/01 00:57:41;;;;;;;40.67;37.55;;;;;;;10.55;100.00;101256.50;5031171;28;20068;-74
2023/10/01 01:00:15;;;;;;;37.63;35.38;;;;;;;10.66;100.00;101258.66;5027091;28;20049;-72
2023/10/01 01:02:56;;;;;;;38.55;36.45;;;;;;;10.47;100.00;101254.00;5030625;28;20057;-72
2023/10/01 01:05:34;;;;;;;36.53;34.53;;;;;;;10.08;100.00;101250.78;5029112;28;20045;-72
2023/10/01 01:08:07;;;;;;;37.83;35.63;;;;;;;10.16;100.00;101254.31;5030731;28;20045;-73
2023/10/01 01:10:40;;;;;;;41.97;39.78;;;;;;;10.31;100.00;101249.78;5026932;28;20063;-72
2023/10/01 01:13:07;;;;;;;41.13;39.05;;;;;;;10.19;100.00;101244.13;5030502;28;20426;-72
2023/10/01 01:15:34;;;;;;;40.80;38.63;;;;;;;10.35;100.00;101247.56;5026941;28;20206;-73
2023/10/01 01:18:06;;;;;;;43.50;41.30;;;;;;;10.02;100.00;101242.75;5029870;28;20473;-72
2023/10/01 01:20:36;;;;;;;39.28;36.88;;;;;;;9.38;100.00;101254.09;5028158;28;20055;-72
2023/10/01 01:23:06;;;;;;;38.08;35.88;;;;;;;9.52;100.00;101249.75;5026483;28;20057;-72
2023/10/01 01:25:33;;;;;;;45.58;43.17;;;;;;;10.21;100.00;101259.88;5028553;28;20076;-73
2023/10/01 01:28:00;;;;;;;42.97;40.70;;;;;;;10.30;100.00;101262.22;5030255;28;20060;-73
2023/10/01 01:30:29;;;;;;;39.15;37.05;;;;;;;9.94;100.00;101254.28;5032747;28;20080;-72
2023/10/01 01:32:57;;;;;;;41.38;39.08;;;;;;;10.36;100.00;101265.16;5054895;28;20243;-72
2023/10/01 01:35:28;;;;;;;45.42;43.03;;;;;;;10.36;100.00;101257.19;5054115;28;20497;-73
2023/10/01 01:37:58;;;;;;;43.25;40.92;;;;;;;10.15;100.00;101256.13;5057088;28;20118;-72
2023/10/01 01:40:31;;;;;;;38.08;35.97;;;;;;;9.57;100.00;101261.44;5054240;28;20048;-72
2023/10/01 01:43:04;;;;;;;38.20;35.90;;;;;;;9.43;100.00;101262.28;5056033;28;20049;-73
2023/10/01 01:45:38;;;;;;;40.63;38.20;;;;;;;9.04;100.00;101258.09;5048132;28;20090;-72
2023/10/01 01:48:21;;;;;;;40.53;38.33;;;;;;;9.25;100.00;101259.19;5053956;28;20049;-72
2023/10/01 01:50:49;;;;;;;36.60;34.50;;;;;;;9.90;100.00;101257.53;5054377;28;20045;-73
2023/10/01 01:53:18;;;;;;;33.22;31.13;;;;;;;10.02;100.00;101253.38;5058815;28;20076;-72
2023/10/01 01:55:47;;;;;;;34.05;32.08;;;;;;;9.86;100.00;101254.41;5052453;28;20049;-72
2023/10/01 01:58:15;;;;;;;42.80;40.60;;;;;;;9.54;100.00;101261.81;5056659;28;20524;-72
2023/10/01 02:01:01;;;;;;;38.90;36.72;;;;;;;9.59;100.00;101270.03;5052273;28;20056;-72
2023/10/01 02:03:28;;;;;;;41.58;39.38;;;;;;;9.92;100.00;101266.91;5051774;28;20052;-72
2023/10/01 02:05:55;;;;;;;42.90;40.50;;;;;;;9.93;100.00;101271.25;5059069;28;20071;-73
2023/10/01 02:08:34;;;;;;;45.67;42.28;;;;;;;10.08;100.00;101269.34;5051088;28;20049;-74
2023/10/01 02:11:04;;;;;;;44.90;42.50;;;;;;;9.38;100.00;101270.81;5059140;28;20102;-73
2023/10/01 02:13:32;;;;;;;40.85;38.55;;;;;;;9.58;100.00;101267.56;5052657;28;20053;-73
2023/10/01 02:16:18;;;;;;;41.35;39.15;;;;;;;9.60;100.00;101270.88;5057509;28;20063;-73
2023/10/01 02:18:55;;;;;;;38.05;35.95;;;;;;;9.65;100.00;101265.81;5057559;28;20149;-73
2023/10/01 02:21:42;;;;;;;39.67;37.47;;;;;;;9.64;100.00;101266.81;5055783;28;20061;-73
2023/10/01 02:24:11;;;;;;;43.13;40.25;;;;;;;9.47;100.00;101258.28;5057468;28;20072;-73
2023/10/01 02:26:39;;;;;;;46.65;44.22;;;;;;;9.34;100.00;101258.09;5054856;28;20045;-73
2023/10/01 02:29:07;;;;;;;40.20;37.90;;;;;;;9.13;100.00;101257.00;5057283;28;20049;-73
2023/10/01 02:31:35;;;;;;;39.58;37.38;;;;;;;9.43;100.00;101262.28;4995345;28;1191186;-73
2023/10/01 02:34:03;;;;;;;35.40;33.30;;;;;;;9.32;100.00;101260.94;5025795;28;20107;-72
2023/10/01 02:36:31;;;;;;;32.47;30.38;;;;;;;9.32;100.00;101262.75;5028339;28;20049;-73
2023/10/01 02:38:57;;;;;;;31.05;29.15;;;;;;;9.41;100.00;101264.31;5025400;28;20057;-72
2023/10/01 02:41:25;;;;;;;38.15;36.05;;;;;;;9.48;100.00;101253.78;5028546;28;20080;-72
2023/10/01 02:43:55;;;;;;;38.28;35.80;;;;;;;9.58;100.00;101260.44;5019616;28;20056;-73
2023/10/01 02:46:26;;;;;;;38.55;36.45;;;;;;;9.21;100.00;101260.56;5024736;28;20696;-73
2023/10/01 02:48:59;;;;;;;35.05;33.00;;;;;;;9.38;100.00;101262.84;5027390;28;20128;-73
2023/10/01 02:51:32;;;;;;;35.17;33.08;;;;;;;8.99;100.00;101262.31;5028851;28;20042;-73
2023/10/01 02:54:04;;;;;;;34.03;31.92;;;;;;;9.26;100.00;101263.47;5028808;28;20045;-73
2023/10/01 02:56:33;;;;;;;33.40;31.48;;;;;;;9.31;100.00;101253.16;5029294;28;20077;-73
2023/10/01 02:59:08;;;;;;;44.17;41.65;;;;;;;9.35;100.00;101259.75;5027607;28;20159;-72
2023/10/01 03:01:36;;;;;;;31.33;29.02;;;;;;;9.31;100.00;101255.81;5028330;28;20049;-73
2023/10/01 03:04:08;;;;;;;36.70;34.60;;;;;;;9.11;100.00;101252.91;5026926;28;20063;-73
2023/10/01 03:06:35;;;;;;;40.75;38.35;;;;;;;9.14;100.00;101245.41;5026059;28;20099;-73
2023/10/01 03:09:04;;;;;;;38.63;36.40;;;;;;;8.92;100.00;101259.53;5032269;28;20046;-73
2023/10/01 03:11:40;;;;;;;39.42;37.03;;;;;;;8.88;100.00;101258.28;5033173;28;20103;-72
2023/10/01 03:14:19;;;;;;;41.90;39.38;;;;;;;8.99;100.00;101249.88;5032009;28;20080;-73
2023/10/01 03:16:52;;;;;;;42.75;40.15;;;;;;;8.88;100.00;101253.78;5031432;28;20060;-73
2023/10/01 03:19:25;;;;;;;43.30;40.80;;;;;;;9.16;100.00;101261.13;5031997;28;20060;-74
2023/10/01 03:24:39;;;;;;;36.47;34.67;;;;;;;8.84;100.00;101267.59;5028962;28;19925;-72
2023/10/01 03:27:18;;;;;;;33.60;31.67;;;;;;;8.97;100.00;101270.44;5030078;28;20046;-73
2023/10/01 03:29:48;;;;;;;31.95;30.17;;;;;;;8.97;100.00;101272.25;5030126;28;20037;-72
2023/10/01 03:35:05;;;;;;;28.40;26.70;;;;;;;8.90;100.00;101280.13;5029138;28;20060;-73
2023/10/01 03:37:38;;;;;;;29.30;27.52;;;;;;;8.93;100.00;101277.09;5028076;28;20077;-72
2023/10/01 03:40:14;;;;;;;28.75;26.75;;;;;;;8.69;100.00;101276.34;5029685;28;20099;-72
2023/10/01 03:42:49;;;;;;;26.55;24.85;;;;;;;8.77;100.00;101279.91;5030153;28;20041;-73
2023/10/01 03:45:51;;;;;;;29.23;27.42;;;;;;;8.89;100.00;101283.75;5026419;28;20129;-73
2023/10/01 03:48:19;;;;;;;30.38;28.25;;;;;;;8.74;100.00;101289.03;5024489;28;20048;-73
2023/10/01 03:50:47;;;;;;;29.73;27.92;;;;;;;8.33;100.00;101291.19;5025761;28;20593;-73
2023/10/01 03:53:17;;;;;;;30.48;28.63;;;;;;;8.52;100.00;101300.50;5029679;28;20119;-73
2023/10/01 03:55:46;;;;;;;26.38;24.77;;;;;;;8.59;100.00;101301.41;5031147;28;20045;-73
2023/10/01 03:58:25;;;;;;;27.05;25.35;;;;;;;8.60;100.00;101298.59;5028781;28;20049;-73
2023/10/01 04:01:09;;;;;;;26.48;24.77;;;;;;;8.19;100.00;101298.88;5025115;28;20103;-73
2023/10/01 04:03:39;;;;;;;26.80;25.00;;;;;;;8.53;100.00;101292.34;5026128;28;20084;-72
2023/10/01 04:06:06;;;;;;;24.88;22.52;;;;;;;7.69;100.00;101304.63;5029831;28;20051;-73
2023/10/01 04:08:39;;;;;;;25.15;23.25;;;;;;;7.62;100.00;101303.66;5031425;28;20443;-73
2023/10/01 04:11:11;;;;;;;25.40;23.77;;;;;;;7.99;100.00;101314.38;5031952;28;20474;-73
2023/10/01 04:13:40;;;;;;;21.17;19.67;;;;;;;8.86;100.00;101305.31;5028323;28;20046;-73
2023/10/01 04:16:14;;;;;;;23.45;21.88;;;;;;;8.50;100.00;101313.88;5030256;28;20057;-73
2023/10/01 04:18:42;;;;;;;24.75;23.05;;;;;;;8.95;100.00;101306.88;5027972;28;20037;-72
2023/10/01 04:21:25;;;;;;;25.17;23.48;;;;;;;8.80;100.00;101312.13;5026213;28;20045;-73
2023/10/01 04:23:54;;;;;;;24.85;23.10;;;;;;;8.82;100.00;101312.78;5023667;28;20064;-74
2023/10/01 04:26:25;;;;;;;24.52;22.67;;;;;;;8.93;100.00;101309.72;5024801;28;20203;-73
2023/10/01 04:28:54;;;;;;;24.58;22.88;;;;;;;9.00;100.00;101320.41;5024351;28;20057;-73
2023/10/01 04:34:04;;;;;;;24.88;23.17;;;;;;;8.84;100.00;101316.09;5026640;28;20112;-73
2023/10/01 04:36:32;;;;;;;23.27;21.58;;;;;;;9.07;100.00;101320.50;5022781;28;20052;-73
2023/10/01 04:39:00;;;;;;;25.15;23.35;;;;;;;9.13;100.00;101317.94;5024064;28;20041;-73
2023/10/01 04:41:27;;;;;;;24.52;22.73;;;;;;;9.19;100.00;101316.41;5023761;28;20053;-73
2023/10/01 04:43:55;;;;;;;24.23;22.52;;;;;;;9.23;100.00;101322.16;5024404;28;20428;-73
2023/10/01 04:46:27;;;;;;;23.13;21.52;;;;;;;9.04;100.00;101316.38;5017713;28;20054;-73
2023/10/01 04:48:57;;;;;;;22.65;21.10;;;;;;;9.04;100.00;101324.34;5023744;28;20068;-73
2023/10/01 04:51:24;;;;;;;23.55;21.85;;;;;;;9.01;100.00;101330.00;5023049;28;20041;-73
2023/10/01 04:53:59;;;;;;;25.35;23.50;;;;;;;9.52;100.00;101326.66;5023229;28;20046;-73
2023/10/01 04:56:27;;;;;;;21.80;20.20;;;;;;;9.35;100.00;101332.16;5027227;28;20057;-73
2023/10/01 04:58:54;;;;;;;23.83;22.05;;;;;;;9.77;100.00;101330.66;5023937;28;20504;-73
2023/10/01 05:01:24;;;;;;;24.10;22.20;;;;;;;9.71;100.00;101336.69;5021630;28;20099;-72
2023/10/01 05:03:56;;;;;;;23.08;21.48;;;;;;;10.02;100.00;101331.16;5026740;28;20510;-72
2023/10/01 05:06:26;;;;;;;23.83;22.02;;;;;;;10.27;100.00;101330.81;5024361;28;20045;-73
2023/10/01 05:08:56;;;;;;;22.08;20.48;;;;;;;10.29;100.00;101332.28;5025820;28;20041;-72
2023/10/01 05:11:29;;;;;;;24.60;22.80;;;;;;;9.97;100.00;101332.72;5019168;28;20052;-73
2023/10/01 05:13:58;;;;;;;22.00;20.33;;;;;;;10.63;100.00;101333.41;5023395;28;20245;-73
2023/10/01 05:16:27;;;;;;;22.83;21.13;;;;;;;10.89;100.00;101329.31;5027042;28;20099;-73
2023/10/01 05:19:09;;;;;;;21.67;20.08;;;;;;;11.17;100.00;101330.16;5027947;28;20041;-72
2023/10/01 05:21:46;;;;;;;23.17;21.48;;;;;;;11.06;100.00;101330.69;5023652;28;20174;-73
2023/10/01 05:24:15;;;;;;;23.60;22.00;;;;;;;11.30;100.00;101336.56;5026265;28;20053;-73
2023/10/01 05:26:44;;;;;;;24.60;22.85;;;;;;;11.34;100.00;101335.16;5024087;28;20049;-72
2023/10/01 05:29:13;;;;;;;24.70;22.80;;;;;;;11.61;100.00;101336.94;5024854;28;20041;-72
2023/10/01 05:31:41;;;;;;;22.67;21.08;;;;;;;11.55;100.00;101336.91;5040596;28;20060;-72
2023/10/01 05:34:11;;;;;;;24.77;22.63;;;;;;;11.91;100.00;101332.16;5048067;28;20660;-72
2023/10/01 05:36:39;;;;;;;23.30;21.70;;;;;;;12.12;100.00;101333.06;5049280;28;20083;-73
2023/10/01 05:39:11;;;;;;;24.30;22.55;;;;;;;12.35;100.00;101338.03;5049281;28;20060;-72
2023/10/01 05:41:44;;;;;;;22.63;21.08;;;;;;;12.49;100.00;101334.34;5046861;28;20542;-73
2023/10/01 05:44:12;;;;;;;22.65;21.05;;;;;;;12.54;100.00;101339.06;5048427;28;20064;-72
2023/10/01 05:46:40;;;;;;;23.58;21.98;;;;;;;12.93;100.00;101334.78;5043708;28;20045;-72
2023/10/01 05:49:08;;;;;;;23.55;21.95;;;;;;;15.33;100.00;101332.44;5048443;28;20069;-75
2023/10/01 05:51:45;;;;;;;24.63;22.92;;;;;;;13.29;100.00;101335.16;5041186;28;20049;-73
2023/10/01 05:54:18;;;;;;;26.10;24.13;;;;;;;13.40;100.00;101330.19;5041642;28;20065;-73
2023/10/01 05:56:48;;;;;;;23.92;22.02;;;;;;;13.69;100.00;101339.56;5046430;28;20065;-72
2023/10/01 05:59:20;;;;;;;23.27;21.58;;;;;;;13.90;100.00;101335.78;5049831;28;20045;-72
2023/10/01 06:01:48;;;;;;;22.83;21.33;;;;;;;14.19;100.00;101339.72;5050193;28;20053;-72
2023/10/01 06:04:17;;;;;;;22.98;21.48;;;;;;;14.42;100.00;101340.00;5050332;28;20078;-72
2023/10/01 06:06:46;;;;;;;26.50;24.50;;;;;;;14.60;100.00;101338.47;5045347;28;20576;-72
2023/10/01 06:09:15;;;;;;;25.35;23.52;;;;;;;14.84;100.00;101345.66;5047313;28;20064;-72
2023/10/01 06:11:48;;;;;;;24.83;23.23;;;;;;;14.94;100.00;101349.69;5042800;28;20053;-72
2023/10/01 06:14:38;;;;;;;22.65;21.10;;;;;;;15.00;100.00;101346.97;5046644;28;20049;-73
2023/10/01 06:17:08;;;;;;;25.20;23.50;;;;;;;15.22;100.00;101354.56;5048058;28;20444;-72
2023/10/01 06:19:38;;;;;;;24.63;22.98;;;;;;;15.50;100.00;101352.22;5048100;28;20067;-73
2023/10/01 06:22:22;;;;;;;26.05;24.05;;;;;;;16.04;100.00;101349.75;5046996;28;20057;-72
2023/10/01 06:24:49;;;;;;;23.98;22.27;;;;;;;15.98;100.00;101361.38;5045061;28;20051;-72
2023/10/01 06:27:19;;;;;;;25.42;23.60;;;;;;;16.00;100.00;101364.63;5043412;28;20049;-72
2023/10/01 06:29:56;;;;;;;25.05;23.25;;;;;;;16.44;100.00;101358.06;5046871;28;20502;-72
2023/10/01 06:32:26;;;;;;;23.77;22.08;;;;;;;16.85;100.00;101366.31;5043647;28;20068;-73
2023/10/01 06:34:57;;;;;;;26.33;24.33;;;;;;;17.03;100.00;101368.88;5045310;28;20037;-72
2023/10/01 06:37:45;;;;;;;25.30;23.30;;;;;;;17.36;100.00;101379.03;5046982;28;20044;-71
2023/10/01 06:40:29;;;;;;;23.85;22.15;;;;;;;17.45;100.00;101371.44;5046849;28;20396;-74
2023/10/01 06:42:56;;;;;;;24.50;22.23;;;;;;;17.95;100.00;101375.47;5045632;28;20049;-73
2023/10/01 06:45:38;;;;;;;26.63;24.65;;;;;;;18.30;100.00;101376.09;5040130;28;20049;-73
2023/10/01 06:48:08;;;;;;;26.75;24.05;;;;;;;18.67;100.00;101377.53;5046325;28;20461;-73
2023/10/01 06:50:36;;;;;;;24.52;22.73;;;;;;;18.66;100.00;101392.06;5047858;28;20052;-73
2023/10/01 06:53:05;;;;;;;24.75;22.38;;;;;;;18.75;100.00;101383.38;5043489;28;20601;-72
2023/10/01 06:55:32;;;;;;;24.85;22.95;;;;;;;19.47;100.00;101392.53;5046657;28;20056;-73
2023/10/01 06:58:00;;;;;;;22.95;21.25;;;;;;;19.70;100.00;101388.81;5048061;28;20099;-72
2023/10/01 07:00:33;;;;;;;22.95;21.05;;;;;;;19.09;100.00;101385.25;5046536;28;20144;-73
2023/10/01 07:03:17;;;;;;;21.35;19.75;;;;;;;19.33;100.00;101388.56;5047771;28;20137;-73
2023/10/01 07:05:46;;;;;;;21.95;20.25;;;;;;;19.79;100.00;101387.31;5042606;28;20102;-74
2023/10/01 07:08:18;;;;;;;22.58;20.88;;;;;;;20.09;100.00;101391.41;5047118;28;20140;-72
2023/10/01 07:10:46;;;;;;;23.70;21.90;;;;;;;19.55;100.00;101386.72;5043521;28;20128;-72
2023/10/01 07:13:15;;;;;;;24.27;22.48;;;;;;;19.63;100.00;101396.22;5043233;28;20418;-72
2023/10/01 07:15:43;;;;;;;25.00;22.92;;;;;;;19.77;100.00;101394.84;5044490;28;20053;-73
2023/10/01 07:18:19;;;;;;;25.30;23.40;;;;;;;20.94;100.00;101389.81;5040360;28;20135;-73
2023/10/01 07:20:49;;;;;;;25.23;23.23;;;;;;;20.81;100.00;101393.75;5044882;28;20490;-73
2023/10/01 07:23:21;;;;;;;24.35;22.45;;;;;;;21.61;100.00;101399.16;5045578;28;20049;-73
2023/10/01 07:25:49;;;;;;;25.53;23.53;;;;;;;20.19;100.00;101398.81;5047444;28;20093;-72
2023/10/01 07:28:18;;;;;;;25.63;23.73;;;;;;;20.72;100.00;101406.09;5045992;28;20317;-73
2023/10/01 07:30:46;;;;;;;25.70;23.58;;;;;;;20.61;100.00;101399.00;5048444;28;20047;-73
2023/10/01 07:33:17;;;;;;;25.20;23.20;;;;;;;22.01;100.00;101397.69;5053662;28;20526;-72
2023/10/01 07:35:44;;;;;;;25.40;23.40;;;;;;;21.94;100.00;101397.94;5060254;28;20045;-73
2023/10/01 07:38:13;;;;;;;25.05;23.15;;;;;;;21.41;100.00;101399.88;5055241;28;20538;-72
2023/10/01 07:43:30;;;;;;;25.95;23.85;;;;;;;22.25;100.00;101405.38;5049694;28;20137;-73
2023/10/01 07:45:58;;;;;;;25.50;23.50;;;;;;;22.68;100.00;101406.75;5049855;28;20052;-73
2023/10/01 07:48:27;;;;;;;27.02;24.90;;;;;;;23.22;100.00;101395.38;5059676;28;20057;-72
2023/10/01 07:50:55;;;;;;;25.67;23.67;;;;;;;23.83;100.00;101407.94;5056052;28;20036;-73
2023/10/01 07:53:23;;;;;;;25.00;23.05;;;;;;;23.67;100.00;101407.19;5057869;28;20044;-72
2023/10/01 07:55:53;;;;;;;25.35;23.35;;;;;;;23.28;100.00;101399.69;5059142;28;20041;-72
2023/10/01 07:58:44;;;;;;;24.38;22.38;;;;;;;24.39;100.00;101406.84;5059708;28;20076;-73
2023/10/01 08:03:56;;;;;;;23.98;22.08;;;;;;;23.63;100.00;101405.28;5059783;28;20095;-72
2023/10/01 08:06:29;;;;;;;26.48;23.92;;;;;;;25.08;100.00;101407.63;5052229;28;20499;-74
2023/10/01 08:08:58;;;;;;;25.83;23.73;;;;;;;24.58;100.00;101405.09;5056858;28;20546;-73
2023/10/01 08:14:20;;;;;;;24.13;22.17;;;;;;;24.68;100.00;101396.84;5014566;28;20521;-72
2023/10/01 08:16:52;;;;;;;25.98;23.88;;;;;;;25.54;100.00;101399.84;5065118;28;20049;-73
2023/10/01 08:19:22;;;;;;;26.52;24.40;;;;;;;25.48;100.00;101398.28;5061539;28;20148;-73
2023/10/01 08:21:53;;;;;;;25.17;23.17;;;;;;;25.73;99.96;101386.28;5057177;28;20048;-73
2023/10/01 08:24:23;;;;;;;24.80;22.85;;;;;;;24.79;100.00;101394.88;5059667;28;20053;-73
2023/10/01 08:26:58;;;;;;;25.77;23.00;;;;;;;24.94;100.00;101395.84;5054386;28;20041;-73
2023/10/01 08:29:28;;;;;;;25.60;23.50;;;;;;;23.88;100.00;101396.28;5048260;28;20492;-72
2023/10/01 08:32:09;;;;;;;25.23;23.13;;;;;;;26.31;93.68;101389.88;5060050;28;20045;-72
2023/10/01 08:37:22;;;;;;;25.77;23.67;;;;;;;27.20;78.93;101386.22;5035604;28;20049;-73
2023/10/01 08:39:53;;;;;;;26.88;24.48;;;;;;;27.29;77.40;101387.94;5061571;28;20107;-73
2023/10/01 08:42:28;;;;;;;26.38;24.17;;;;;;;28.30;70.18;101389.63;5065271;28;20048;-72
2023/10/01 08:45:02;;;;;;;25.02;22.92;;;;;;;28.20;62.67;101387.16;5054352;28;20479;-72
2023/10/01 08:47:34;;;;;;;28.40;25.67;;;;;;;27.55;70.00;101390.16;5052438;28;20056;-72
2023/10/01 08:50:26;;;;;;;26.48;24.27;;;;;;;27.30;70.50;101383.31;5054977;28;20041;-72
2023/10/01 08:52:58;;;;;;;25.73;23.40;;;;;;;25.98;77.68;101387.88;5057603;28;20049;-74
2023/10/01 08:55:35;;;;;;;25.88;23.67;;;;;;;26.29;70.38;101384.69;5060008;28;20060;-72
2023/10/01 08:58:14;;;;;;;25.85;23.70;;;;;;;25.88;74.68;101387.22;5053555;28;20056;-73
2023/10/01 09:00:48;;;;;;;28.80;26.50;;;;;;;26.37;71.66;101386.75;5052070;28;20040;-72
2023/10/01 09:03:26;;;;;;;28.52;26.10;;;;;;;26.63;67.95;101387.19;5049374;28;20470;-72
2023/10/01 09:06:01;;;;;;;29.02;26.73;;;;;;;27.03;67.52;101392.25;5055954;28;20111;-73
2023/10/01 09:08:31;;;;;;;26.50;24.40;;;;;;;26.23;70.66;101389.44;5056127;28;20040;-74
2023/10/01 09:10:59;;;;;;;25.92;23.83;;;;;;;26.71;67.18;101383.78;5050663;28;20068;-74
2023/10/01 09:13:30;;;;;;;28.48;26.08;;;;;;;26.71;65.43;101383.78;5062831;28;20052;-73
2023/10/01 09:16:10;;;;;;;27.52;25.33;;;;;;;28.16;54.18;101386.13;5056840;28;20044;-74
2023/10/01 09:19:02;;;;;;;27.35;24.95;;;;;;;27.62;57.45;101374.19;5063904;28;20553;-72
2023/10/01 09:21:38;;;;;;;26.40;24.20;;;;;;;28.43;56.22;101379.78;5058985;28;20144;-74
2023/10/01 09:24:33;;;;;;;25.70;23.60;;;;;;;28.80;52.47;101369.56;5060019;28;20303;-74
2023/10/01 09:27:08;;;;;;;26.38;24.20;;;;;;;29.65;49.68;101370.28;5059182;28;20131;-74
2023/10/01 09:29:44;;;;;;;25.10;22.90;;;;;;;30.77;45.91;101368.63;5060075;28;20052;-74
2023/10/01 09:32:13;;;;;;;27.25;24.83;;;;;;;30.77;45.05;101382.34;5030780;28;20108;-73
2023/10/01 09:34:47;;;;;;;25.98;23.67;;;;;;;30.30;45.19;101368.53;5029856;28;20080;-74
2023/10/01 09:37:33;;;;;;;25.00;22.90;;;;;;;30.70;42.94;101378.47;5029812;28;20065;-74
2023/10/01 09:40:04;;;;;;;24.58;22.20;;;;;;;30.93;44.17;101371.66;5026387;28;20041;-74
2023/10/01 09:42:44;;;;;;;27.40;25.00;;;;;;;27.58;53.62;101378.66;5027154;28;20664;-72
2023/10/01 09:45:26;;;;;;;26.58;24.38;;;;;;;29.37;47.27;101375.16;5029805;28;20134;-73
2023/10/01 09:48:04;;;;;;;25.98;23.88;;;;;;;29.91;44.47;101364.00;5023232;28;20068;-74
2023/10/01 09:50:39;;;;;;;26.23;24.13;;;;;;;31.12;42.23;101370.47;5022982;28;20698;-74
2023/10/01 09:53:12;;;;;;;26.40;24.13;;;;;;;30.34;44.12;101374.19;5025971;28;20049;-73
2023/10/01 09:55:55;;;;;;;26.27;24.17;;;;;;;31.45;42.20;101376.13;5029652;28;20152;-73
2023/10/01 09:58:25;;;;;;;26.20;24.00;;;;;;;29.58;44.20;101371.81;5024859;28;20050;-73
2023/10/01 10:00:55;;;;;;;26.52;24.25;;;;;;;31.78;40.74;101362.50;5029368;28;20128;-73
2023/10/01 10:03:22;;;;;;;26.38;24.17;;;;;;;30.10;43.85;101367.22;5029780;28;20049;-73
2023/10/01 10:05:49;;;;;;;25.52;23.42;;;;;;;30.24;43.22;101369.84;5030387;28;20064;-73
2023/10/01 10:08:20;;;;;;;23.98;21.88;;;;;;;28.31;49.44;101374.03;5026681;28;20514;-73
2023/10/01 10:10:55;;;;;;;24.95;22.85;;;;;;;29.36;47.07;101381.75;5029441;28;20049;-74
2023/10/01 10:13:45;;;;;;;25.75;23.65;;;;;;;29.83;45.81;101367.53;5029458;28;20049;-73
2023/10/01 10:16:32;;;;;;;24.80;22.80;;;;;;;29.15;47.69;101364.28;5029702;28;20071;-74
2023/10/01 10:19:08;;;;;;;24.90;22.80;;;;;;;29.25;48.22;101366.75;5027261;28;20060;-74
2023/10/01 10:22:16;;;;;;;24.90;22.83;;;;;;;29.96;44.84;101372.06;5028952;28;20045;-74
2023/10/01 10:24:47;;;;;;;25.20;23.05;;;;;;;30.00;43.63;101362.09;5029038;28;20128;-73
2023/10/01 10:27:34;;;;;;;24.48;22.27;;;;;;;31.57;38.91;101361.69;5026238;28;20054;-73
2023/10/01 10:30:15;;;;;;;24.92;22.83;;;;;;;30.64;43.50;101355.91;5029078;28;20049;-73
2023/10/01 10:33:11;;;;;;;26.60;24.10;;;;;;;30.52;42.76;101364.00;5029342;28;20052;-72
2023/10/01 10:35:48;;;;;;;24.85;22.65;;;;;;;31.13;39.54;101359.13;5026260;28;20045;-73
2023/10/01 10:38:51;;;;;;;26.10;24.00;;;;;;;30.13;42.38;101354.81;5029258;28;20513;-74
2023/10/01 10:41:19;;;;;;;27.75;25.35;;;;;;;29.41;42.96;101356.16;5028991;28;20049;-73
2023/10/01 10:44:07;;;;;;;26.67;24.42;;;;;;;29.42;44.56;101357.78;5025476;28;20069;-74
2023/10/01 10:47:05;;;;;;;26.65;24.35;;;;;;;30.59;41.07;101350.59;5023097;28;20059;-73
2023/10/01 10:49:50;;;;;;;24.58;22.30;;;;;;;30.47;42.50;101350.47;5022477;28;20053;-73
2023/10/01 10:52:32;;;;;;;25.00;22.90;;;;;;;30.50;39.94;101345.16;5027562;28;20045;-74
2023/10/01 10:55:15;;;;;;;24.48;22.27;;;;;;;31.55;37.57;101337.31;5029376;28;20481;-72
2023/10/01 10:57:48;;;;;;;57.25;23.95;;;;;;;31.11;38.71;101339.47;5026853;28;20053;-73
2023/10/01 11:00:25;;;;;;;26.38;24.08;;;;;;;30.05;42.26;101337.28;5021618;28;20049;-74
2023/10/01 11:02:56;;;;;;;25.40;23.13;;;;;;;30.10;43.61;101342.56;5025137;28;20053;-74
2023/10/01 11:05:24;;;;;;;25.00;22.90;;;;;;;29.93;40.54;101330.84;5028550;28;20045;-73
2023/10/01 11:07:58;;;;;;;25.90;23.70;;;;;;;28.95;45.24;101332.81;5027177;28;20595;-73
2023/10/01 11:10:28;;;;;;;24.52;22.42;;;;;;;30.33;41.16;101315.84;5028990;28;20477;-73
2023/10/01 11:12:55;;;;;;;24.60;22.30;;;;;;;30.91;42.27;101315.53;5026662;28;20138;-73
2023/10/01 11:15:24;;;;;;;26.00;23.75;;;;;;;31.88;38.76;101311.88;5024532;28;20111;-73
2023/10/01 11:17:59;;;;;;;26.20;24.00;;;;;;;31.87;37.39;101316.56;5027879;28;20041;-74
2023/10/01 11:20:32;;;;;;;25.20;22.95;;;;;;;29.90;40.28;101322.13;5028441;28;20053;-74
2023/10/01 11:23:00;;;;;;;26.30;24.00;;;;;;;30.13;41.29;101311.81;5024652;28;20056;-74
2023/10/01 11:25:27;;;;;;;26.80;24.60;;;;;;;30.58;37.81;101314.16;5028423;28;20057;-73
2023/10/01 11:28:04;;;;;;;27.13;24.92;;;;;;;31.63;37.22;101306.25;5030934;28;20068;-73
2023/10/01 11:30:34;;;;;;;25.77;23.38;;;;;;;32.16;37.68;101312.13;5038643;28;20053;-74
2023/10/01 11:33:16;;;;;;;24.80;22.60;;;;;;;32.55;36.32;101307.22;5064878;28;20415;-73
2023/10/01 11:36:06;;;;;;;26.67;24.20;;;;;;;29.94;40.17;101310.53;5059892;28;20453;-74
2023/10/01 11:38:35;;;;;;;25.70;23.52;;;;;;;32.19;35.98;101305.16;5062298;28;20561;-74
2023/10/01 11:41:09;;;;;;;26.23;23.98;;;;;;;32.72;35.05;101304.28;5054662;28;20066;-73
2023/10/01 11:43:42;;;;;;;24.70;22.70;;;;;;;33.82;33.18;101303.38;5063832;28;20102;-73
2023/10/01 11:46:19;;;;;;;26.80;24.65;;;;;;;32.45;34.52;101293.91;5054561;28;20049;-74
2023/10/01 11:49:06;;;;;;;27.48;25.15;;;;;;;32.75;35.20;101297.28;5059837;28;20123;-74
2023/10/01 11:51:43;;;;;;;26.75;24.45;;;;;;;33.43;32.22;101296.69;5048457;28;20156;-73